Home > Products > Valid Products > TAF

000
FTUS45 KMSO 010521
TAFSMN
TAF
KSMN 010521Z 0106/0206 VRB05KT P6SM SCT100
      AMD LTD TO CLD VIS AND WIND=



000
FTUS45 KMSO 010521
TAFGPI
TAF
KGPI 010521Z 0106/0206 VRB05KT P6SM SCT070 BKN090
     FM012100 20010KT P6SM SCT100=



000
FTUS45 KMSO 010521
TAFMSO
TAF
KMSO 010521Z 0106/0206 VRB06KT P6SM BKN100
     FM012100 29012KT P6SM SCT100=



000
FTUS45 KMSO 010521
TAFBTM
TAF
KBTM 010521Z 0106/0206 31008KT P6SM BKN090
     FM012100 29010KT P6SM FEW100=



000
FTUS45 KMSO 312326
TAFBTM
TAF
KBTM 312326Z 0100/0124 31008KT P6SM BKN090
     FM012100 29010KT P6SM FEW100=



000
FTUS45 KMSO 312326
TAFSMN
TAF
KSMN 312326Z 0100/0124 VRB05KT P6SM SCT100
      AMD LTD TO CLD VIS AND WIND=



000
FTUS45 KMSO 312326
TAFMSO
TAF
KMSO 312326Z 0100/0124 32012KT P6SM BKN100
     FM010200 VRB06KT P6SM BKN100
     FM012100 29012KT P6SM SCT100=



000
FTUS45 KMSO 312326
TAFGPI
TAF
KGPI 312326Z 0100/0124 23010KT P6SM VCSH BKN050 OVC080
     FM010300 VRB05KT P6SM SCT070 BKN090
     FM012100 20010KT P6SM SCT100=



000
FTUS45 KMSO 311726
TAFGPI
TAF
KGPI 311726Z 3118/0118 VRB05KT P6SM VCSH BKN050 OVC080
     FM010300 VRB05KT P6SM SCT050 BKN080=



000
FTUS45 KMSO 311726
TAFSMN
TAF
KSMN 311726Z 3118/0118 VRB05KT P6SM BKN080
      AMD LTD TO CLD VIS AND WIND=



000
FTUS45 KMSO 311726
TAFBTM
TAF
KBTM 311726Z 3118/0118 VRB04KT P6SM VCSH SCT060 BKN100
     FM312300 31008KT P6SM BKN100=



000
FTUS45 KMSO 311726
TAFMSO
TAF
KMSO 311726Z 3118/0118 VRB04KT P6SM VCSH SCT050 BKN080
     FM312000 30015KT P6SM BKN100
     FM010100 VRB06KT P6SM BKN100=



000
FTUS45 KMSO 311120
TAFSMN
TAF
KSMN 311120Z 3112/0112 VRB05KT P6SM VCSH SCT035 BKN080
     FM311700 VRB05KT P6SM BKN080
      AMD LTD TO CLD VIS AND WIND=



000
FTUS45 KMSO 311120
TAFBTM
TAF
KBTM 311120Z 3112/0112 00000KT P6SM SCT060
     FM311500 VRB04KT P6SM VCSH SCT060 BKN100
     FM312300 31008KT P6SM BKN100=



000
FTUS45 KMSO 311120
TAFGPI
TAF
KGPI 311120Z 3112/0112 19004KT P6SM VCSH BKN080
     FM311500 VRB05KT P6SM VCSH BKN050 OVC080
     FM010300 VRB05KT P6SM SCT050 BKN080=



000
FTUS45 KMSO 311120
TAFMSO
TAF
KMSO 311120Z 3112/0112 VRB04KT P6SM VCSH SCT050 BKN080
     FM312000 30015KT P6SM BKN100
     FM010100 VRB06KT P6SM BKN100=



000
FTUS45 KMSO 310525
TAFMSO
TAF
KMSO 310525Z 3106/0106 VRB06KT P6SM VCSH SCT070 BKN120
     FM311500 32004KT P6SM VCSH SCT050 BKN080
     FM312000 30015KT P6SM BKN100=



000
FTUS45 KMSO 310525
TAFGPI
TAF
KGPI 310525Z 3106/0106 19004KT P6SM VCSH SCT080 BKN100
     FM311500 VRB05KT P6SM VCSH BKN050 OVC080=



000
FTUS45 KMSO 310525
TAFSMN
TAF
KSMN 310525Z 3106/0106 VRB05KT P6SM VCSH SCT035 BKN080
     FM311700 VRB05KT P6SM BKN080
      AMD LTD TO CLD VIS AND WIND=



000
FTUS45 KMSO 310525
TAFBTM
TAF
KBTM 310525Z 3106/0106 00000KT P6SM SCT060
     FM311500 VRB04KT P6SM VCSH SCT060 BKN100
     FM312300 31008KT P6SM BKN100=



000
FTUS45 KMSO 302327
TAFBTM
TAF
KBTM 302327Z 3100/3124 00000KT P6SM SKC
     FM310400 31006KT P6SM -SHRA BKN050
     FM311500 VRB04KT P6SM VCSH FEW060 BKN100=



000
FTUS45 KMSO 302327
TAFMSO
TAF
KMSO 302327Z 3100/3124 32014G22KT P6SM FEW060
     FM310400 34012KT P6SM SCT070 BKN120
     FM311500 32004KT P6SM VCSH SCT050 BKN080=



000
FTUS45 KMSO 302327
TAFSMN
TAF
KSMN 302327Z 3100/3124 35004KT P6SM SCT120
     FM310400 VRB05KT P6SM -SHRA SCT050 BKN060 BKN080
     FM310800 VRB05KT P6SM SCT080
     FM311700 VRB05KT P6SM VCSH BKN080
      AMD LTD TO CLD VIS AND WIND=



000
FTUS45 KMSO 302327
TAFGPI
TAF
KGPI 302327Z 3100/3124 23011G18KT P6SM FEW100
     FM310400 19004KT P6SM SCT050 BKN100
     FM310600 VRB05KT P6SM VCSH BKN050 OVC080=



000
FTUS45 KMSO 301931 AAB
TAFMSO
TAF AMD
KMSO 301931Z 3020/3118 32014G18KT P6SM FEW060
     FM302100 29013G21KT P6SM BKN070
     FM310200 34007KT P6SM SCT070 BKN120
     FM311100 32004KT P6SM VCSH SCT050 BKN080=



000
FTUS45 KMSO 301919 AAA
TAFGPI
TAF AMD
KGPI 301919Z 3019/3118 23011G18KT P6SM FEW100
     FM310400 19004KT P6SM SCT050 BKN100
     FM310800 VRB05KT P6SM VCSH BKN050 OVC080=



000
FTUS45 KMSO 301736
TAFMSO
TAF
KMSO 301736Z 3018/3118 32005KT P6SM FEW060 BKN100
     FM302100 29013G21KT P6SM BKN070
     FM310200 34007KT P6SM SCT070 BKN120
     FM311100 32004KT P6SM VCSH SCT050 BKN080=



000
FTUS45 KMSO 301736
TAFBTM
TAF
KBTM 301736Z 3018/3118 00000KT P6SM SKC
     FM302100 30010G20KT P6SM VCTS BKN070CB
     FM310100 31006KT P6SM -SHRA BKN050
     FM310700 VRB04KT P6SM FEW060 SCT100=



000
FTUS45 KMSO 301736
TAFSMN
TAF
KSMN 301736Z 3018/3118 33003KT P6SM VCSH SKC
     FM302100 34008G18KT P6SM VCSH BKN080
     FM310300 33004KT P6SM VCSH BKN080
     FM310600 VRB05KT P6SM -SHRA SCT050 BKN060 BKN080
     FM310800 VRB05KT P6SM SCT080
      AMD LTD TO CLD VIS AND WIND=



000
FTUS45 KMSO 301736
TAFGPI
TAF
KGPI 301736Z 3018/3118 26007KT P6SM FEW090 OVC110
     FM310400 19004KT P6SM SCT050 BKN100
     FM310800 VRB05KT P6SM VCSH BKN050 OVC080=



000
FTUS45 KMSO 301125
TAFGPI
TAF
KGPI 301125Z 3012/3112 18007KT P6SM BKN120
     FM301800 20008G18KT P6SM OVC050=



000
FTUS45 KMSO 301125
TAFBTM
TAF
KBTM 301125Z 3012/3112 35006KT P6SM -SHRA BKN060 OVC090
     FM301400 30010KT P6SM VCSH BKN080
     FM302100 30010G20KT P6SM VCTS BKN070CB
     FM310100 31008KT P6SM -SHRA BKN050=



000
FTUS45 KMSO 301125
TAFSMN
TAF
KSMN 301125Z 3012/3112 VRB05KT P6SM VCSH BKN100
     FM301200 VRB06KT P6SM VCSH BKN100
     FM302100 34008G18KT P6SM -SHRA BKN080
      AMD LTD TO CLD VIS AND WIND=



000
FTUS45 KMSO 301125
TAFMSO
TAF
KMSO 301125Z 3012/3112 30005KT P6SM OVC100
     FM301700 30006G14KT P6SM BKN080
     FM302100 29013G21KT P6SM BKN070=



000
FTUS45 KMSO 300849 AAA
TAFMSO
TAF AMD
KMSO 300849Z 3009/3106 31012G22KT P6SM -SHRA BKN060 OVC080
     FM301200 29005KT P6SM VCSH BKN100
     FM302100 29013G21KT P6SM BKN070=



000
FTUS45 KMSO 300533
TAFGPI
TAF
KGPI 300533Z 3006/3106 19004KT P6SM BKN120
     FM301800 20010KT P6SM OVC050=



000
FTUS45 KMSO 300533
TAFBTM
TAF
KBTM 300533Z 3006/3106 16006KT P6SM VCSH BKN090
     FM300900 31005KT P6SM -SHRA BKN060 OVC100
     FM301500 30010KT P6SM VCSH BKN080
     FM302100 30010G16KT P6SM VCTS BKN070CB=



000
FTUS45 KMSO 300533
TAFMSO
TAF
KMSO 300533Z 3006/3106 34008KT P6SM VCSH BKN100
     FM300900 30006KT P6SM -SHRA BKN060 OVC100
     FM301200 27005KT P6SM VCSH BKN100
     FM302100 29013G21KT P6SM BKN070=



000
FTUS45 KMSO 300533
TAFSMN
TAF
KSMN 300533Z 3006/3106 VRB05KT P6SM VCSH BKN120
     FM300800 20008KT P6SM -SHRA BKN060 OVC080
     FM301200 VRB06KT P6SM VCSH BKN100
     FM302100 34008G16KT P6SM -SHRA BKN080
      AMD LTD TO CLD VIS AND WIND=



000
FTUS45 KMSO 300104 AAA
TAFMSO
TAF AMD
KMSO 300104Z 3001/3024 29012KT P6SM SKC
     FM300300 31008KT P6SM BKN100
     FM300600 30006KT P6SM VCSH BKN060 OVC100
     FM300900 27006KT P6SM -SHRA BKN060 OVC100=



000
FTUS45 KMSO 292320
TAFSMN
TAF
KSMN 292320Z 3000/3024 22005KT P6SM SCT120
     FM300600 VRB05KT P6SM VCSH BKN100
     FM300800 17008KT P6SM -SHRA BKN050 OVC080
      AMD LTD TO CLD VIS AND WIND=



000
FTUS45 KMSO 292320
TAFGPI
TAF
KGPI 292320Z 3000/3024 17010G16KT P6SM SKC
     FM300300 22005KT P6SM OVC120=



000
FTUS45 KMSO 292320
TAFBTM
TAF
KBTM 292320Z 3000/3024 VRB05KT P6SM SKC
     FM300600 16008KT P6SM VCSH BKN100
     FM300900 31005KT P6SM -SHRA BKN060 OVC100=



000
FTUS45 KMSO 292320
TAFMSO
TAF
KMSO 292320Z 3000/3024 VRB03KT P6SM SKC
     FM300300 31008KT P6SM BKN100
     FM300600 30006KT P6SM VCSH BKN060 OVC100
     FM300900 27006KT P6SM -SHRA BKN060 OVC100=



000
FTUS45 KMSO 291859 AAA
TAFGPI
TAF AMD
KGPI 291859Z 2919/3018 15010G16KT P6SM SKC
     FM300300 22005KT P6SM OVC120=



000
FTUS45 KMSO 291736
TAFSMN
TAF
KSMN 291736Z 2918/3018 00000KT P6SM SKC
     FM292200 27008KT P6SM SCT100
     FM300600 VRB05KT P6SM VCSH BKN100
     FM300800 17008KT P6SM -SHRA BKN050 OVC080
     FM301000 VRB05KT P6SM VCSH SCT080
      AMD LTD TO CLD VIS AND WIND=



000
FTUS45 KMSO 291736
TAFGPI
TAF
KGPI 291736Z 2918/3018 VRB05KT P6SM SKC
     FM292000 20010KT P6SM SCT100 BKN120
     FM300300 22005KT P6SM OVC120=



000
FTUS45 KMSO 291736
TAFBTM
TAF
KBTM 291736Z 2918/3018 00000KT P6SM SKC
     FM292100 24010KT P6SM SCT100
     FM300200 27010G20KT P6SM VCSH BKN100
     FM300900 24005KT P6SM -SHRA BKN040 OVC060
     FM301400 VRB05KT P6SM VCSH BKN100=



000
FTUS45 KMSO 291736
TAFMSO
TAF
KMSO 291736Z 2918/3018 VRB03KT P6SM SKC
     FM292100 29010G20KT P6SM SCT100
     FM300300 31008KT P6SM BKN100
     FM300600 30006KT P6SM VCSH BKN060 OVC100
     FM301500 VRB04KT P6SM BKN100=



000
FTUS45 KMSO 291126
TAFSMN
TAF
KSMN 291126Z 2912/3012 00000KT P6SM SKC
     FM292200 27008KT P6SM SCT100
     FM300600 VRB05KT P6SM VCSH BKN100
      AMD LTD TO CLD VIS AND WIND=



000
FTUS45 KMSO 291126
TAFGPI
TAF
KGPI 291126Z 2912/3012 VRB05KT P6SM SCT100
     FM291500 03008KT P6SM SCT100
     FM292000 20010KT P6SM SCT100 BKN120
     FM300300 22005KT P6SM OVC120=



000
FTUS45 KMSO 291126
TAFMSO
TAF
KMSO 291126Z 2912/3012 VRB03KT P6SM SCT120
     FM292100 29010G20KT P6SM SCT100
     FM300300 31008KT P6SM BKN100
     FM300600 30006KT P6SM VCSH OVC100=



000
FTUS45 KMSO 291126
TAFBTM
TAF
KBTM 291126Z 2912/3012 14003KT P6SM FEW100
     FM292100 24010KT P6SM SCT100
     FM300200 27010G20KT P6SM VCSH BKN100
     FM300900 24005KT P6SM -SHRA OVC100=



    US Dept of Commerce
    National Oceanic and Atmospheric Administration
    National Weather Service
    1325 East West Highway
    Silver Spring, MD 20910
    Page Author: NWS Internet Services Team
Disclaimer
Information Quality
Credits
Glossary
Privacy Policy
Freedom of Information Act (FOIA)
About Us
Career Opportunities